createdAt,value
2022-10-23T00:01:34.842Z,74.11
2022-10-23T00:03:36.107Z,74.16
2022-10-23T00:05:37.378Z,74.19
2022-10-23T00:07:38.679Z,74.16
2022-10-23T00:09:40.955Z,74.47
2022-10-23T00:11:42.320Z,74.89
2022-10-23T00:13:43.631Z,74.32
2022-10-23T00:15:44.918Z,74.75
2022-10-23T00:17:46.223Z,74.54
2022-10-23T00:19:47.515Z,74.71
2022-10-23T00:21:48.824Z,74.74
2022-10-23T00:23:50.126Z,74.74
2022-10-23T00:25:51.403Z,75.30
2022-10-23T00:27:52.694Z,75.36
2022-10-23T00:29:53.984Z,75.01
2022-10-23T00:31:55.282Z,75.02
2022-10-23T00:33:56.567Z,74.92
2022-10-23T00:35:57.835Z,74.96
2022-10-23T00:37:59.139Z,75.08
2022-10-23T00:40:00.437Z,75.06
2022-10-23T00:42:01.715Z,75.53
2022-10-23T00:44:03.009Z,75.17
2022-10-23T00:46:04.283Z,75.48
2022-10-23T00:48:05.542Z,74.95
2022-10-23T00:50:06.834Z,75.56
2022-10-23T00:52:08.163Z,75.62
2022-10-23T00:54:25.401Z,75.83
2022-10-23T00:56:26.939Z,75.63
2022-10-23T00:58:28.231Z,75.57
2022-10-23T01:00:29.554Z,75.53
2022-10-23T01:02:31.050Z,75.79
2022-10-23T01:04:32.381Z,76.05
2022-10-23T01:06:33.651Z,76.23
2022-10-23T01:08:34.913Z,76.49
2022-10-23T01:10:36.186Z,76.37
2022-10-23T01:12:37.485Z,76.34
2022-10-23T01:14:38.805Z,76.37
2022-10-23T01:16:40.112Z,76.36
2022-10-23T01:18:41.434Z,76.44
2022-10-23T01:20:42.702Z,76.18
2022-10-23T01:22:44.115Z,75.98
2022-10-23T01:24:45.527Z,75.76
2022-10-23T01:26:46.790Z,75.59
2022-10-23T01:28:48.071Z,75.12
2022-10-23T01:30:49.333Z,75.60
2022-10-23T01:32:50.626Z,75.35
2022-10-23T01:34:51.906Z,75.67
2022-10-23T01:36:53.176Z,75.15
2022-10-23T01:38:54.506Z,75.34
2022-10-23T01:40:55.880Z,75.51
2022-10-23T01:42:57.171Z,75.50
2022-10-23T01:44:58.463Z,75.56
2022-10-23T01:46:59.793Z,76.03
2022-10-23T01:49:01.271Z,75.44
2022-10-23T01:51:02.638Z,75.78
2022-10-23T01:53:04.437Z,75.83
2022-10-23T01:55:05.690Z,76.25
2022-10-23T01:57:06.961Z,75.98
2022-10-23T01:59:08.234Z,76.20
2022-10-23T02:01:09.561Z,76.27
2022-10-23T02:03:10.894Z,76.48
2022-10-23T02:05:12.294Z,76.14
2022-10-23T02:07:13.561Z,76.79
2022-10-23T02:09:14.826Z,76.33
2022-10-23T02:11:16.137Z,76.62
2022-10-23T02:13:17.527Z,76.50
2022-10-23T02:15:18.802Z,76.20
2022-10-23T02:17:20.079Z,76.26
2022-10-23T02:19:21.423Z,76.35
2022-10-23T02:21:22.695Z,76.25
2022-10-23T02:23:23.995Z,76.53
2022-10-23T02:25:25.416Z,76.64
2022-10-23T02:27:26.894Z,76.50
2022-10-23T02:29:28.245Z,76.08
2022-10-23T02:31:29.522Z,75.68
2022-10-23T02:33:31.091Z,76.14
2022-10-23T02:35:32.760Z,75.72
2022-10-23T02:37:34.078Z,75.97
2022-10-23T02:39:35.371Z,75.64
2022-10-23T02:41:36.673Z,75.88
2022-10-23T02:43:38.018Z,75.72
2022-10-23T02:47:46.695Z,75.71
2022-10-23T02:49:47.999Z,76.06
2022-10-23T02:51:49.285Z,76.10
2022-10-23T02:53:50.632Z,76.04
2022-10-23T02:55:51.962Z,76.30
2022-10-23T02:57:53.245Z,76.00
2022-10-23T02:59:54.523Z,76.13
2022-10-23T03:01:55.941Z,76.03
2022-10-23T03:03:57.241Z,75.92
2022-10-23T03:05:58.541Z,76.28
2022-10-23T03:07:59.819Z,76.43
2022-10-23T03:10:01.073Z,76.31
2022-10-23T03:12:02.346Z,76.54
2022-10-23T03:14:03.622Z,76.21
2022-10-23T03:16:04.910Z,76.73
2022-10-23T03:18:07.155Z,76.52
2022-10-23T03:20:08.408Z,76.52
2022-10-23T03:22:09.724Z,76.29
2022-10-23T03:24:11.061Z,76.65
2022-10-23T03:26:12.342Z,76.67
2022-10-23T03:28:13.615Z,76.67
2022-10-23T03:30:14.979Z,76.93
2022-10-23T03:32:16.318Z,76.42
2022-10-23T03:34:20.144Z,77.18
2022-10-23T03:36:21.413Z,76.78
2022-10-23T03:38:22.717Z,76.65
2022-10-23T03:40:23.994Z,77.01
2022-10-23T03:42:25.281Z,76.73
2022-10-23T03:44:26.567Z,77.18
2022-10-23T03:46:27.881Z,76.62
2022-10-23T03:48:29.207Z,76.57
2022-10-23T03:50:30.468Z,77.01
2022-10-23T03:52:31.780Z,76.51
2022-10-23T03:54:33.848Z,76.85
2022-10-23T03:56:35.117Z,76.46
2022-10-23T03:58:36.416Z,76.78
2022-10-23T04:00:37.786Z,76.28
2022-10-23T04:02:39.350Z,76.71
2022-10-23T04:04:40.721Z,76.48
2022-10-23T04:06:42.010Z,76.36
2022-10-23T04:08:43.919Z,76.27
2022-10-23T04:10:45.206Z,75.85
2022-10-23T04:12:46.532Z,76.15
2022-10-23T04:14:47.813Z,75.78
2022-10-23T04:16:49.643Z,75.59
2022-10-23T04:18:50.960Z,75.64
2022-10-23T04:20:52.230Z,76.00
2022-10-23T04:22:53.541Z,76.23
2022-10-23T04:24:54.823Z,76.10
2022-10-23T04:26:56.139Z,76.27
2022-10-23T04:28:57.427Z,76.49
2022-10-23T04:30:58.750Z,77.25
2022-10-23T04:33:00.184Z,76.76
2022-10-23T04:35:01.545Z,76.71
2022-10-23T04:37:02.821Z,76.98
2022-10-23T04:39:04.326Z,77.14
2022-10-23T04:41:05.627Z,76.90
2022-10-23T04:43:06.945Z,77.67
2022-10-23T04:45:08.202Z,77.86
2022-10-23T04:47:09.481Z,77.77
2022-10-23T04:49:10.753Z,77.74
2022-10-23T04:51:12.067Z,77.89
2022-10-23T04:53:13.338Z,77.73
2022-10-23T04:55:14.645Z,77.81
2022-10-23T04:57:16.245Z,78.49
2022-10-23T04:59:17.517Z,77.86
2022-10-23T05:01:18.870Z,78.53
2022-10-23T05:03:20.235Z,78.29
2022-10-23T05:05:21.523Z,78.50
2022-10-23T05:07:22.853Z,78.49
2022-10-23T05:09:24.142Z,78.19
2022-10-23T05:11:25.453Z,78.51
2022-10-23T05:13:26.717Z,78.06
2022-10-23T05:15:28.031Z,77.95
2022-10-23T05:17:29.354Z,77.88
2022-10-23T05:19:30.684Z,77.25
2022-10-23T05:21:31.991Z,77.57
2022-10-23T05:23:33.318Z,77.12
2022-10-23T05:25:34.592Z,77.25
2022-10-23T05:27:35.866Z,77.33
2022-10-23T05:29:37.172Z,76.97
2022-10-23T05:31:38.451Z,77.08
2022-10-23T05:33:41.070Z,77.14
2022-10-23T05:35:42.355Z,76.63
2022-10-23T05:37:43.657Z,76.88
2022-10-23T05:39:44.997Z,76.39
2022-10-23T05:41:46.329Z,76.14
2022-10-23T05:43:47.920Z,76.27
2022-10-23T05:45:49.200Z,76.07
2022-10-23T05:47:50.531Z,76.07
2022-10-23T05:49:52.315Z,76.19
2022-10-23T05:51:53.576Z,76.38
2022-10-23T05:53:54.886Z,76.38
2022-10-23T05:55:56.305Z,76.27
2022-10-23T05:57:57.565Z,76.13
2022-10-23T05:59:58.833Z,76.15
2022-10-23T06:02:00.386Z,76.45
2022-10-23T06:04:01.826Z,76.71
2022-10-23T06:06:03.141Z,76.51
2022-10-23T06:08:04.411Z,76.95
2022-10-23T06:10:05.700Z,76.66
2022-10-23T06:12:07.061Z,76.86
2022-10-23T06:14:08.330Z,76.98
2022-10-23T06:16:10.030Z,77.22
2022-10-23T06:18:11.389Z,76.88
2022-10-23T06:20:12.678Z,77.15
2022-10-23T06:22:14.349Z,77.42
2022-10-23T06:24:15.642Z,77.78
2022-10-23T06:26:19.854Z,78.05
2022-10-23T06:28:21.178Z,78.17
2022-10-23T06:30:22.497Z,77.97
2022-10-23T06:32:23.801Z,78.16
2022-10-23T06:34:25.130Z,78.39
2022-10-23T06:36:26.531Z,77.95
2022-10-23T06:38:27.801Z,78.39
2022-10-23T06:40:29.219Z,78.44
2022-10-23T06:42:30.511Z,78.37
2022-10-23T06:44:31.842Z,78.31
2022-10-23T06:46:34.642Z,78.10
2022-10-23T06:48:36.368Z,77.78
2022-10-23T06:50:37.700Z,77.79
2022-10-23T06:52:47.075Z,77.39
2022-10-23T06:54:48.837Z,77.47
2022-10-23T06:56:50.133Z,77.20
2022-10-23T06:58:51.553Z,77.16
2022-10-23T07:00:52.907Z,76.35
2022-10-23T07:02:54.273Z,76.38
2022-10-23T07:04:55.648Z,76.32
2022-10-23T07:06:59.706Z,76.20
2022-10-23T07:09:01.002Z,76.38
2022-10-23T07:11:02.256Z,76.42
2022-10-23T07:13:03.551Z,76.06
2022-10-23T07:15:04.815Z,75.95
2022-10-23T07:17:06.091Z,75.75
2022-10-23T07:19:07.382Z,76.07
2022-10-23T07:21:08.710Z,75.96
2022-10-23T07:23:09.998Z,75.93
2022-10-23T07:25:11.319Z,76.10
2022-10-23T07:27:12.581Z,76.01
2022-10-23T07:29:13.871Z,76.09
2022-10-23T07:31:15.177Z,75.89
2022-10-23T07:33:16.446Z,76.41
2022-10-23T07:35:17.719Z,75.78
2022-10-23T07:37:18.986Z,76.03
2022-10-23T07:39:20.258Z,76.19
2022-10-23T07:41:21.566Z,76.54
2022-10-23T07:43:23.009Z,76.25
2022-10-23T07:45:24.374Z,76.49
2022-10-23T07:47:25.646Z,76.64
2022-10-23T07:49:26.966Z,76.55
2022-10-23T07:51:28.239Z,76.88
2022-10-23T07:53:29.556Z,77.25
2022-10-23T07:55:30.886Z,77.25
2022-10-23T07:57:32.150Z,76.87
2022-10-23T07:59:37.135Z,77.17
2022-10-23T08:01:39.571Z,77.16
2022-10-23T08:03:43.759Z,77.15
2022-10-23T08:05:45.087Z,76.66
2022-10-23T08:07:46.415Z,76.60
2022-10-23T08:09:47.722Z,76.48
2022-10-23T08:11:48.995Z,75.58
2022-10-23T08:13:50.267Z,75.63
2022-10-23T08:15:51.589Z,76.05
2022-10-23T08:17:55.885Z,75.72
2022-10-23T08:19:57.215Z,75.63
2022-10-23T08:21:58.499Z,75.61
2022-10-23T08:24:02.631Z,75.23
2022-10-23T08:26:05.318Z,75.08
2022-10-23T08:28:06.649Z,74.94
2022-10-23T08:30:07.910Z,75.16
2022-10-23T08:32:09.179Z,74.78
2022-10-23T08:34:10.465Z,74.64
2022-10-23T08:36:11.734Z,74.79
2022-10-23T08:38:13.015Z,74.33
2022-10-23T08:40:14.316Z,74.33
2022-10-23T08:42:15.612Z,74.36
2022-10-23T08:44:16.890Z,74.25
2022-10-23T08:46:18.163Z,74.18
2022-10-23T08:48:19.440Z,73.73
2022-10-23T08:50:20.787Z,73.66
2022-10-23T08:52:22.083Z,73.89
2022-10-23T08:54:23.409Z,73.82
2022-10-23T08:56:27.014Z,73.57
2022-10-23T08:58:29.665Z,73.28
2022-10-23T09:00:30.931Z,73.68
2022-10-23T09:02:32.222Z,73.74
2022-10-23T09:04:33.478Z,73.42
2022-10-23T09:06:34.731Z,73.54
2022-10-23T09:08:39.114Z,73.21
2022-10-23T09:10:40.390Z,70.51
2022-10-23T09:12:41.669Z,69.63
2022-10-23T09:14:42.979Z,70.30
2022-10-23T09:16:44.518Z,70.86
2022-10-23T09:18:46.199Z,70.42
2022-10-23T09:20:47.566Z,70.22
2022-10-23T09:22:48.851Z,70.80
2022-10-23T09:24:53.730Z,71.39
2022-10-23T09:26:55.401Z,71.36
2022-10-23T09:28:56.740Z,71.37
2022-10-23T09:30:58.019Z,71.64
2022-10-23T09:32:59.346Z,71.67
2022-10-23T09:35:00.656Z,72.04
2022-10-23T09:37:01.929Z,72.11
2022-10-23T09:39:03.241Z,72.47
2022-10-23T09:41:04.583Z,72.18
2022-10-23T09:43:05.876Z,72.41
2022-10-23T09:45:07.153Z,72.80
2022-10-23T09:47:08.424Z,72.28
2022-10-23T09:49:09.691Z,72.44
2022-10-23T09:51:10.953Z,72.30
2022-10-23T09:53:12.221Z,72.46
2022-10-23T09:55:13.482Z,72.42
2022-10-23T09:57:14.763Z,72.10
2022-10-23T09:59:18.751Z,72.05
2022-10-23T10:01:20.081Z,72.43
2022-10-23T10:03:21.489Z,72.04
2022-10-23T10:05:23.330Z,72.36
2022-10-23T10:07:24.664Z,72.01
2022-10-23T10:09:25.922Z,72.15
2022-10-23T10:11:27.736Z,72.41
2022-10-23T10:13:29.013Z,72.42
2022-10-23T10:15:30.313Z,72.48
2022-10-23T10:17:31.675Z,72.56
2022-10-23T10:19:33.192Z,72.87
2022-10-23T10:21:34.486Z,72.77
2022-10-23T10:23:35.783Z,72.44
2022-10-23T10:25:40.028Z,72.95
2022-10-23T10:27:41.609Z,73.63
2022-10-23T10:29:43.338Z,71.41
2022-10-23T10:31:46.428Z,70.65
2022-10-23T10:33:50.570Z,72.60
2022-10-23T10:35:51.875Z,71.06
2022-10-23T10:37:53.394Z,71.47
2022-10-23T10:39:54.859Z,71.50
2022-10-23T10:41:56.142Z,72.01
2022-10-23T10:43:57.419Z,71.68
2022-10-23T10:45:58.782Z,72.13
2022-10-23T10:48:00.124Z,71.85
2022-10-23T10:50:01.414Z,72.09
2022-10-23T10:52:02.709Z,72.10
2022-10-23T10:54:04.074Z,71.78
2022-10-23T10:56:05.457Z,72.17
2022-10-23T10:58:06.791Z,72.20
2022-10-23T11:00:08.080Z,72.37
2022-10-23T11:02:09.493Z,72.20
2022-10-23T11:04:10.873Z,72.27
2022-10-23T11:06:12.146Z,71.74
2022-10-23T11:08:13.804Z,71.81
2022-10-23T11:10:15.121Z,71.79
2022-10-23T11:12:19.355Z,71.33
2022-10-23T11:14:20.957Z,71.57
2022-10-23T11:16:23.630Z,70.99
2022-10-23T11:18:24.953Z,71.39
2022-10-23T11:20:26.318Z,71.66
2022-10-23T11:22:27.591Z,71.57
2022-10-23T11:24:28.866Z,71.40
2022-10-23T11:26:30.138Z,71.40
2022-10-23T11:28:31.441Z,71.36
2022-10-23T11:30:32.707Z,71.11
2022-10-23T11:34:43.171Z,71.31
2022-10-23T11:36:44.447Z,71.21
2022-10-23T11:38:45.798Z,71.48
2022-10-23T11:40:47.170Z,71.53
2022-10-23T11:42:48.590Z,71.29
2022-10-23T11:44:49.928Z,71.41
2022-10-23T11:46:51.186Z,71.42
2022-10-23T11:48:52.623Z,71.66
2022-10-23T11:50:55.001Z,71.62
2022-10-23T11:53:12.944Z,71.43
2022-10-23T11:55:14.759Z,71.55
2022-10-23T11:57:17.309Z,71.34
2022-10-23T11:59:18.604Z,71.49
2022-10-23T12:01:19.957Z,71.58
2022-10-23T12:03:21.298Z,71.23
2022-10-23T12:05:22.602Z,71.21
2022-10-23T12:07:23.955Z,71.37
2022-10-23T12:09:25.277Z,71.65
2022-10-23T12:11:27.587Z,71.51
2022-10-23T12:13:29.241Z,71.72
2022-10-23T12:15:30.574Z,71.53
2022-10-23T12:17:31.850Z,70.45
2022-10-23T12:19:33.175Z,69.32
2022-10-23T12:21:34.470Z,69.12
2022-10-23T12:23:35.762Z,68.80
2022-10-23T12:25:37.026Z,67.95
2022-10-23T12:27:38.334Z,66.58
2022-10-23T12:29:42.858Z,68.35
2022-10-23T12:31:47.034Z,69.44
2022-10-23T12:33:49.359Z,70.02
2022-10-23T12:35:50.631Z,70.14
2022-10-23T12:37:52.511Z,70.07
2022-10-23T12:39:53.830Z,70.77
2022-10-23T12:41:55.175Z,71.22
2022-10-23T12:43:56.498Z,71.65
2022-10-23T12:45:57.839Z,71.88
2022-10-23T12:47:59.106Z,72.22
2022-10-23T12:50:00.404Z,72.44
2022-10-23T12:52:01.692Z,72.43
2022-10-23T12:54:03.026Z,72.64
2022-10-23T12:56:04.299Z,72.68
2022-10-23T12:58:05.608Z,72.92
2022-10-23T13:00:06.891Z,72.97
2022-10-23T13:02:10.993Z,73.14
2022-10-23T13:04:12.806Z,73.09
2022-10-23T13:06:17.255Z,73.03
2022-10-23T13:08:18.539Z,73.50
2022-10-23T13:10:19.837Z,73.13
2022-10-23T13:12:22.417Z,73.09
2022-10-23T13:14:23.720Z,72.64
2022-10-23T13:16:24.994Z,72.40
2022-10-23T13:18:26.255Z,72.36
2022-10-23T13:20:27.588Z,72.04
2022-10-23T13:22:28.862Z,72.17
2022-10-23T13:24:30.144Z,72.38
2022-10-23T13:26:31.790Z,72.18
2022-10-23T13:28:33.281Z,72.35
2022-10-23T13:30:34.611Z,72.27
2022-10-23T13:32:35.909Z,72.59
2022-10-23T13:34:37.177Z,72.70
2022-10-23T13:36:39.598Z,72.62
2022-10-23T13:38:40.890Z,72.92
2022-10-23T13:40:42.182Z,72.96
2022-10-23T13:42:43.531Z,73.16
2022-10-23T13:44:44.934Z,73.12
2022-10-23T13:46:46.234Z,73.01
2022-10-23T13:48:47.805Z,73.74
2022-10-23T13:50:49.259Z,73.40
2022-10-23T13:52:50.527Z,73.45
2022-10-23T13:54:52.806Z,73.54
2022-10-23T13:56:54.115Z,73.93
2022-10-23T13:58:55.450Z,73.91
2022-10-23T14:00:56.774Z,73.63
2022-10-23T14:02:58.102Z,73.59
2022-10-23T14:04:59.415Z,73.59
2022-10-23T14:07:00.703Z,73.78
2022-10-23T14:09:02.034Z,73.49
2022-10-23T14:11:03.409Z,73.37
2022-10-23T14:13:04.791Z,73.32
2022-10-23T14:15:06.078Z,73.70
2022-10-23T14:17:07.368Z,73.49
2022-10-23T14:19:08.639Z,73.18
2022-10-23T14:21:09.959Z,73.74
2022-10-23T14:23:11.238Z,73.54
2022-10-23T14:25:12.511Z,73.74
2022-10-23T14:27:13.864Z,74.01
2022-10-23T14:29:21.223Z,73.92
2022-10-23T14:31:25.295Z,73.51
2022-10-23T14:33:26.562Z,73.33
2022-10-23T14:35:27.878Z,73.65
2022-10-23T14:37:29.206Z,73.58
2022-10-23T14:39:30.506Z,73.58
2022-10-23T14:41:31.804Z,72.85
2022-10-23T14:43:33.851Z,73.04
2022-10-23T14:45:35.195Z,72.83
2022-10-23T14:47:36.485Z,71.05
2022-10-23T14:49:40.081Z,70.29
2022-10-23T14:51:41.366Z,69.43
2022-10-23T14:53:42.663Z,69.76
2022-10-23T14:57:45.520Z,70.13
2022-10-23T14:59:47.115Z,69.41
2022-10-23T15:01:48.964Z,69.70
2022-10-23T15:03:55.757Z,71.00
2022-10-23T15:05:57.050Z,71.20
2022-10-23T15:07:59.040Z,71.35
2022-10-23T15:10:00.364Z,70.53
2022-10-23T15:12:01.716Z,69.78
2022-10-23T15:14:02.996Z,70.80
2022-10-23T15:16:04.787Z,71.71
2022-10-23T15:18:06.053Z,72.32
2022-10-23T15:20:08.006Z,72.67
2022-10-23T15:22:09.284Z,73.08
2022-10-23T15:24:10.582Z,71.66
2022-10-23T15:26:11.865Z,71.28
2022-10-23T15:28:16.371Z,72.13
2022-10-23T15:30:17.675Z,72.65
2022-10-23T15:32:19.013Z,72.67
2022-10-23T15:34:20.307Z,72.82
2022-10-23T15:36:21.619Z,72.85
2022-10-23T15:38:23.032Z,72.81
2022-10-23T15:40:24.296Z,73.17
2022-10-23T15:42:25.628Z,72.92
2022-10-23T15:44:27.975Z,73.39
2022-10-23T15:46:29.290Z,72.38
2022-10-23T15:48:33.331Z,72.35
2022-10-23T15:50:34.594Z,72.22
2022-10-23T15:52:35.966Z,72.04
2022-10-23T15:54:37.285Z,72.60
2022-10-23T15:56:41.225Z,72.04
2022-10-23T15:58:42.520Z,72.02
2022-10-23T16:00:43.846Z,71.81
2022-10-23T16:02:45.265Z,71.78
2022-10-23T16:04:46.790Z,71.77
2022-10-23T16:06:48.104Z,71.54
2022-10-23T16:08:49.459Z,70.26
2022-10-23T16:10:50.756Z,71.32
2022-10-23T16:12:52.055Z,72.17
2022-10-23T16:14:53.359Z,71.80
2022-10-23T16:16:54.643Z,71.52
2022-10-23T16:18:58.866Z,71.55
2022-10-23T16:21:00.178Z,71.53
2022-10-23T16:23:13.438Z,71.05
2022-10-23T16:25:14.869Z,71.34
2022-10-23T16:27:16.151Z,71.44
2022-10-23T16:29:17.427Z,71.29
2022-10-23T16:31:20.369Z,72.09
2022-10-23T16:33:21.991Z,72.18
2022-10-23T16:35:23.271Z,71.65
2022-10-23T16:37:24.558Z,69.91
2022-10-23T16:39:25.842Z,68.60
2022-10-23T16:41:27.140Z,69.44
2022-10-23T16:43:28.441Z,70.15
2022-10-23T16:45:30.690Z,70.58
2022-10-23T16:47:34.470Z,70.66
2022-10-23T16:49:35.749Z,70.72
2022-10-23T16:51:37.127Z,70.80
2022-10-23T16:53:38.409Z,69.89
2022-10-23T16:55:39.682Z,70.27
2022-10-23T16:57:40.992Z,70.26
2022-10-23T16:59:42.289Z,70.94
2022-10-23T17:01:43.626Z,71.12
2022-10-23T17:03:45.026Z,71.78
2022-10-23T17:05:46.333Z,73.12
2022-10-23T17:07:47.612Z,72.62
2022-10-23T17:09:48.920Z,72.17
2022-10-23T17:11:55.651Z,72.44
2022-10-23T17:13:59.079Z,71.53
2022-10-23T17:16:00.879Z,71.33
2022-10-23T17:18:02.299Z,71.43
2022-10-23T17:20:06.599Z,71.72
2022-10-23T17:22:12.584Z,72.80
2022-10-23T17:24:13.949Z,70.01
2022-10-23T17:26:17.963Z,71.09
2022-10-23T17:28:19.559Z,72.39
2022-10-23T17:30:20.854Z,72.73
2022-10-23T17:32:25.133Z,72.95
2022-10-23T17:34:26.474Z,73.31
2022-10-23T17:36:30.591Z,73.42
2022-10-23T17:38:31.878Z,73.18
2022-10-23T17:40:33.611Z,73.30
2022-10-23T17:42:34.981Z,73.23
2022-10-23T17:44:36.265Z,73.36
2022-10-23T17:46:37.583Z,73.11
2022-10-23T17:48:39.577Z,72.66
2022-10-23T17:50:46.630Z,71.27
2022-10-23T17:52:51.201Z,71.80
2022-10-23T17:54:55.547Z,71.56
2022-10-23T17:56:59.867Z,70.99
2022-10-23T17:59:01.151Z,71.37
2022-10-23T18:01:02.499Z,70.87
2022-10-23T18:03:03.897Z,71.27
2022-10-23T18:05:10.991Z,71.20
2022-10-23T18:07:13.085Z,70.95
2022-10-23T18:09:14.382Z,70.65
2022-10-23T18:11:15.735Z,70.86
2022-10-23T18:13:19.943Z,71.22
2022-10-23T18:15:21.266Z,70.92
2022-10-23T18:17:25.233Z,71.16
2022-10-23T18:19:26.543Z,71.59
2022-10-23T18:21:28.097Z,71.12
2022-10-23T18:23:29.371Z,71.58
2022-10-23T18:25:30.660Z,71.62
2022-10-23T18:27:31.938Z,72.03
2022-10-23T18:29:33.227Z,71.68
2022-10-23T18:31:35.486Z,71.33
2022-10-23T18:33:36.769Z,71.47
2022-10-23T18:35:38.052Z,71.40
2022-10-23T18:37:41.572Z,71.43
2022-10-23T18:39:43.060Z,71.59
2022-10-23T18:41:44.438Z,71.24
2022-10-23T18:43:45.842Z,71.73
2022-10-23T18:45:47.159Z,71.80
2022-10-23T18:47:48.499Z,72.03
2022-10-23T18:49:50.098Z,71.48
2022-10-23T18:51:51.433Z,71.65
2022-10-23T18:53:52.711Z,71.95
2022-10-23T18:55:54.010Z,71.54
2022-10-23T18:57:55.287Z,70.79
2022-10-23T18:59:56.563Z,71.58
2022-10-23T19:01:57.943Z,69.62
2022-10-23T19:03:59.387Z,70.53
2022-10-23T19:06:00.653Z,71.55
2022-10-23T19:08:01.925Z,71.43
2022-10-23T19:10:03.378Z,71.58
2022-10-23T19:12:05.872Z,71.61
2022-10-23T19:14:07.170Z,72.03
2022-10-23T19:16:08.444Z,72.00
2022-10-23T19:18:09.706Z,71.02
2022-10-23T19:20:10.986Z,70.17
2022-10-23T19:22:12.381Z,69.38
2022-10-23T19:24:13.670Z,69.39
2022-10-23T19:26:14.931Z,65.64
2022-10-23T19:28:18.906Z,66.09
2022-10-23T19:30:22.584Z,67.82
2022-10-23T19:32:24.223Z,67.81
2022-10-23T19:34:25.530Z,67.53
2022-10-23T19:36:26.838Z,67.89
2022-10-23T19:38:28.119Z,67.99
2022-10-23T19:40:32.446Z,68.67
2022-10-23T19:42:33.979Z,68.81
2022-10-23T19:44:35.259Z,69.26
2022-10-23T19:46:36.893Z,70.02
2022-10-23T19:48:39.470Z,68.93
2022-10-23T19:50:40.746Z,67.77
2022-10-23T19:52:42.034Z,68.98
2022-10-23T19:54:43.348Z,68.21
2022-10-23T19:56:44.667Z,67.52
2022-10-23T19:58:45.943Z,67.81
2022-10-23T20:00:47.229Z,68.22
2022-10-23T20:02:50.218Z,68.15
2022-10-23T20:04:54.143Z,68.09
2022-10-23T20:06:55.437Z,68.91
2022-10-23T20:08:56.704Z,68.38
2022-10-23T20:10:58.011Z,68.54
2022-10-23T20:13:18.255Z,68.88
2022-10-23T20:15:20.574Z,68.87
2022-10-23T20:17:22.301Z,69.43
2022-10-23T20:19:23.621Z,69.90
2022-10-23T20:21:25.114Z,69.92
2022-10-23T20:23:26.829Z,70.19
2022-10-23T20:25:28.105Z,70.11
2022-10-23T20:27:29.579Z,70.30
2022-10-23T20:29:30.952Z,71.15
2022-10-23T20:31:32.352Z,67.30
2022-10-23T20:33:33.629Z,67.44
2022-10-23T20:35:38.366Z,68.81
2022-10-23T20:37:39.822Z,68.52
2022-10-23T20:39:41.343Z,68.02
2022-10-23T20:41:43.813Z,67.42
2022-10-23T20:43:45.090Z,68.08
2022-10-23T20:45:46.387Z,67.89
2022-10-23T20:47:47.889Z,68.62
2022-10-23T20:49:49.206Z,68.49
2022-10-23T20:51:54.781Z,68.82
2022-10-23T20:53:56.903Z,68.75
2022-10-23T20:55:58.177Z,68.77
2022-10-23T20:58:00.539Z,68.90
2022-10-23T21:00:03.184Z,68.79
2022-10-23T21:02:04.585Z,68.21
2022-10-23T21:04:05.949Z,68.78
2022-10-23T21:06:07.348Z,68.71
2022-10-23T21:08:08.628Z,68.46
2022-10-23T21:10:09.904Z,69.08
2022-10-23T21:12:11.230Z,69.68
2022-10-23T21:14:12.516Z,69.59
2022-10-23T21:16:14.018Z,69.36
2022-10-23T21:18:27.497Z,69.52
2022-10-23T21:20:38.757Z,69.26
2022-10-23T21:22:40.050Z,69.20
2022-10-23T21:24:41.462Z,69.28
2022-10-23T21:26:42.983Z,69.44
2022-10-23T21:28:50.864Z,69.54
2022-10-23T21:31:02.279Z,68.94
2022-10-23T21:33:03.538Z,69.29
2022-10-23T21:35:04.818Z,69.38
2022-10-23T21:37:14.403Z,69.88
2022-10-23T21:39:16.115Z,69.36
2022-10-23T21:41:17.388Z,69.70
2022-10-23T21:43:18.699Z,69.69
2022-10-23T21:45:20.038Z,69.03
2022-10-23T21:47:21.301Z,69.20
2022-10-23T21:49:22.662Z,69.46
2022-10-23T21:51:24.010Z,69.62
2022-10-23T21:53:25.282Z,69.54
2022-10-23T21:55:28.855Z,69.58
2022-10-23T21:57:30.127Z,69.75
2022-10-23T21:59:35.507Z,69.80
2022-10-23T22:01:37.238Z,69.84
2022-10-23T22:03:38.591Z,70.46
2022-10-23T22:05:39.871Z,68.84
2022-10-23T22:07:41.426Z,68.65
2022-10-23T22:09:43.099Z,65.80
2022-10-23T22:11:44.439Z,68.04
2022-10-23T22:13:45.743Z,66.94
2022-10-23T22:15:47.034Z,66.65
2022-10-23T22:17:48.338Z,67.44
2022-10-23T22:19:52.394Z,66.72
2022-10-23T22:21:53.683Z,67.08
2022-10-23T22:23:55.029Z,67.66
2022-10-23T22:25:56.380Z,67.35
2022-10-23T22:27:57.860Z,67.67
2022-10-23T22:29:59.186Z,68.08
2022-10-23T22:32:00.494Z,68.52
2022-10-23T22:34:13.053Z,68.09
2022-10-23T22:36:23.059Z,67.46
2022-10-23T22:38:24.338Z,67.57
2022-10-23T22:40:25.606Z,67.86
2022-10-23T22:42:26.898Z,68.19
2022-10-23T22:44:28.193Z,68.22
2022-10-23T22:46:29.483Z,68.33
2022-10-23T22:48:30.785Z,68.65
2022-10-23T22:50:32.063Z,69.02
2022-10-23T22:52:33.339Z,69.34
2022-10-23T22:54:34.690Z,65.68
2022-10-23T22:56:35.987Z,65.14
2022-10-23T22:58:37.281Z,67.10
2022-10-23T23:00:41.351Z,67.58
2022-10-23T23:02:44.830Z,67.51
2022-10-23T23:04:46.160Z,67.51
2022-10-23T23:06:47.446Z,67.99
2022-10-23T23:08:48.723Z,68.44
2022-10-23T23:10:50.394Z,69.17
2022-10-23T23:12:51.658Z,69.48
2022-10-23T23:14:52.950Z,69.70
2022-10-23T23:16:54.402Z,69.74
2022-10-23T23:18:55.673Z,69.95
2022-10-23T23:20:56.992Z,70.58
2022-10-23T23:22:58.252Z,70.72
2022-10-23T23:24:59.519Z,70.75
2022-10-23T23:27:00.821Z,71.14
2022-10-23T23:29:02.085Z,71.00
2022-10-23T23:31:03.355Z,71.86
2022-10-23T23:33:04.670Z,71.64
2022-10-23T23:35:05.952Z,72.03
2022-10-23T23:37:07.221Z,71.59
2022-10-23T23:39:08.539Z,72.06
2022-10-23T23:41:09.851Z,72.30
2022-10-23T23:43:11.127Z,72.08
2022-10-23T23:45:15.476Z,72.12
2022-10-23T23:47:16.878Z,72.62
2022-10-23T23:49:18.228Z,72.70
2022-10-23T23:51:19.530Z,72.49
2022-10-23T23:53:20.818Z,72.80
2022-10-23T23:55:22.097Z,73.02
2022-10-23T23:57:23.375Z,73.04
2022-10-23T23:59:24.651Z,73.08
